TimeEDT,TemperatureF,Dew PointF,Humidity,Sea Level PressureIn,VisibilityMPH,Wind Direction,Wind SpeedMPH,Gust SpeedMPH,PrecipitationIn,Events,Conditions,WindDirDegrees,DateUTC
12:53 AM,73.0,66.0,79,29.94,10.0,NNE,9.2,-,N/A,,Clear,30,2012-10-25 04:53:00
1:53 AM,73.0,66.0,79,29.93,10.0,NE,6.9,-,N/A,,Partly Cloudy,40,2012-10-25 05:53:00
2:53 AM,72.0,66.0,81,29.90,10.0,NNE,9.2,-,N/A,,Partly Cloudy,30,2012-10-25 06:53:00
3:53 AM,72.0,66.0,81,29.88,10.0,NE,8.1,-,N/A,,Mostly Cloudy,40,2012-10-25 07:53:00
4:53 AM,72.0,66.0,81,29.88,10.0,NNE,8.1,-,N/A,,Mostly Cloudy,30,2012-10-25 08:53:00
5:53 AM,73.0,66.9,81,29.88,10.0,NNE,6.9,-,N/A,,Mostly Cloudy,20,2012-10-25 09:53:00
6:53 AM,73.0,66.9,81,29.89,10.0,NNE,9.2,-,N/A,,Mostly Cloudy,30,2012-10-25 10:53:00
7:53 AM,73.0,68.0,84,29.91,10.0,NE,6.9,-,N/A,,Mostly Cloudy,40,2012-10-25 11:53:00
8:53 AM,73.9,68.0,82,29.91,10.0,NE,8.1,-,N/A,,Mostly Cloudy,40,2012-10-25 12:53:00
9:53 AM,78.1,69.1,74,29.92,10.0,NE,9.2,16.1,N/A,,Mostly Cloudy,40,2012-10-25 13:53:00
10:53 AM,79.0,69.1,72,29.92,10.0,NE,6.9,-,N/A,,Overcast,40,2012-10-25 14:53:00
11:53 AM,81.0,69.1,67,29.90,10.0,NE,11.5,-,N/A,,Mostly Cloudy,50,2012-10-25 15:53:00
1:53 PM,84.0,68.0,58,29.84,10.0,NE,8.1,-,N/A,,Overcast,50,2012-10-25 17:53:00
2:53 PM,84.0,64.9,53,29.82,10.0,NE,10.4,17.3,N/A,,Overcast,50,2012-10-25 18:53:00
3:53 PM,84.0,66.0,55,29.81,10.0,NNE,8.1,-,N/A,,Overcast,30,2012-10-25 19:53:00
4:53 PM,82.9,66.0,56,29.82,10.0,NE,13.8,20.7,N/A,,Mostly Cloudy,50,2012-10-25 20:53:00
5:53 PM,80.1,66.9,64,29.84,10.0,NNE,17.3,23.0,N/A,,Mostly Cloudy,30,2012-10-25 21:53:00
6:53 PM,78.1,66.9,68,29.86,10.0,NE,10.4,20.7,N/A,,Mostly Cloudy,40,2012-10-25 22:53:00
7:53 PM,75.0,68.0,79,29.86,10.0,NNE,6.9,-,0.00,,Mostly Cloudy,30,2012-10-25 23:53:00
8:53 PM,75.0,68.0,79,29.86,10.0,North,6.9,-,N/A,,Mostly Cloudy,10,2012-10-26 00:53:00
9:53 PM,73.9,68.0,82,29.86,10.0,North,6.9,-,N/A,,Mostly Cloudy,10,2012-10-26 01:53:00
10:53 PM,75.0,68.0,79,29.86,10.0,North,8.1,-,N/A,,Mostly Cloudy,10,2012-10-26 02:53:00
11:53 PM,73.9,69.1,85,29.84,10.0,North,6.9,-,N/A,,Overcast,10,2012-10-26 03:53:00